createdAt,value
2019-05-16T00:00:42.536Z,1.97
2019-05-16T00:03:12.597Z,1.30
2019-05-16T00:05:53.391Z,1.10
2019-05-16T00:08:14.272Z,1.80
2019-05-16T00:10:44.270Z,2.30
2019-05-16T00:13:14.272Z,1.33
2019-05-16T00:15:44.310Z,1.20
2019-05-16T00:18:14.344Z,3.03
2019-05-16T00:20:45.167Z,1.80
2019-05-16T00:23:15.104Z,2.63
2019-05-16T00:25:45.198Z,2.57
2019-05-16T00:28:15.227Z,1.80
2019-05-16T00:30:45.129Z,1.70
2019-05-16T00:33:15.370Z,1.80
2019-05-16T00:35:45.368Z,2.10
2019-05-16T00:38:15.379Z,1.97
2019-05-16T00:40:45.511Z,1.40
2019-05-16T00:43:15.508Z,1.00
2019-05-16T00:45:45.503Z,1.00
2019-05-16T00:48:15.505Z,1.13
2019-05-16T00:50:45.507Z,1.17
2019-05-16T00:53:15.558Z,1.00
2019-05-16T00:55:47.823Z,0.80
2019-05-16T00:58:18.923Z,1.70
2019-05-16T01:00:50.288Z,0.90
2019-05-16T01:03:20.849Z,1.37
2019-05-16T01:05:50.868Z,2.63
2019-05-16T01:08:20.751Z,1.43
2019-05-16T01:10:51.515Z,1.80
2019-05-16T01:13:21.932Z,1.20
2019-05-16T01:15:51.944Z,1.10
2019-05-16T01:18:21.871Z,1.93
2019-05-16T01:20:51.875Z,1.73
2019-05-16T01:23:21.885Z,1.43
2019-05-16T01:25:51.807Z,0.80
2019-05-16T01:28:21.811Z,1.30
2019-05-16T01:30:51.840Z,1.47
2019-05-16T01:33:21.763Z,1.20
2019-05-16T01:35:51.755Z,0.83
2019-05-16T01:38:21.699Z,0.97
2019-05-16T01:40:51.703Z,1.03
2019-05-16T01:43:21.756Z,1.57
2019-05-16T01:45:51.770Z,0.80
2019-05-16T01:48:21.821Z,1.10
2019-05-16T01:50:51.744Z,1.53
2019-05-16T01:53:21.700Z,0.80
2019-05-16T01:55:51.676Z,1.47
2019-05-16T01:58:21.643Z,1.20
2019-05-16T02:01:03.117Z,1.67
2019-05-16T02:03:23.529Z,1.40
2019-05-16T02:05:53.564Z,1.27
2019-05-16T02:08:23.880Z,1.27
2019-05-16T02:10:53.871Z,1.10
2019-05-16T02:13:23.910Z,1.50
2019-05-16T02:15:53.947Z,0.80
2019-05-16T02:18:23.799Z,1.20
2019-05-16T02:20:53.819Z,1.00
2019-05-16T02:23:23.885Z,1.00
2019-05-16T02:25:53.979Z,1.00
2019-05-16T02:28:30.253Z,0.80
2019-05-16T02:30:55.603Z,0.80
2019-05-16T02:33:25.571Z,1.00
2019-05-16T02:35:56.064Z,1.70
2019-05-16T02:38:26.148Z,1.57
2019-05-16T02:40:56.292Z,1.10
2019-05-16T02:43:26.763Z,0.77
2019-05-16T02:45:56.878Z,1.63
2019-05-16T02:48:26.987Z,1.23
2019-05-16T02:50:57.003Z,1.10
2019-05-16T02:53:27.030Z,1.20
2019-05-16T02:55:57.198Z,0.93
2019-05-16T02:58:30.486Z,0.80
2019-05-16T03:01:01.923Z,0.80
2019-05-16T03:03:31.695Z,0.90
2019-05-16T03:06:02.849Z,0.93
2019-05-16T03:08:32.999Z,1.77
2019-05-16T03:11:03.239Z,1.07
2019-05-16T03:13:35.313Z,1.03
2019-05-16T03:16:11.741Z,1.00
2019-05-16T03:18:42.564Z,0.80
2019-05-16T03:21:12.604Z,0.83
2019-05-16T03:23:42.527Z,0.70
2019-05-16T03:26:12.500Z,0.87
2019-05-16T03:28:42.536Z,0.70
2019-05-16T03:31:14.982Z,1.10
2019-05-16T03:33:51.949Z,0.60
2019-05-16T03:36:16.507Z,0.90
2019-05-16T03:38:46.673Z,1.40
2019-05-16T03:41:17.048Z,0.67
2019-05-16T03:43:46.965Z,0.70
2019-05-16T03:46:16.905Z,0.60
2019-05-16T03:48:46.834Z,0.77
2019-05-16T03:51:16.839Z,0.70
2019-05-16T03:53:46.682Z,0.60
2019-05-16T03:56:16.695Z,0.53
2019-05-16T03:58:46.954Z,0.77
2019-05-16T04:01:16.978Z,1.20
2019-05-16T04:03:46.900Z,0.80
2019-05-16T04:06:16.944Z,1.57
2019-05-16T04:08:46.993Z,0.70
2019-05-16T04:11:22.178Z,1.30
2019-05-16T04:13:50.829Z,1.07
2019-05-16T04:16:21.079Z,2.33
2019-05-16T04:18:51.653Z,0.80
2019-05-16T04:21:22.208Z,0.70
2019-05-16T04:23:52.380Z,1.10
2019-05-16T04:26:22.333Z,0.97
2019-05-16T04:28:52.377Z,0.70
2019-05-16T04:31:22.459Z,0.60
2019-05-16T04:33:52.454Z,0.70
2019-05-16T04:36:22.528Z,0.60
2019-05-16T04:38:53.108Z,0.60
2019-05-16T04:41:23.244Z,0.50
2019-05-16T04:43:53.252Z,0.57
2019-05-16T04:46:23.259Z,0.80
2019-05-16T04:48:53.439Z,0.60
2019-05-16T04:51:23.428Z,1.20
2019-05-16T04:53:53.395Z,0.77
2019-05-16T04:56:25.238Z,0.60
2019-05-16T04:58:55.185Z,0.60
2019-05-16T05:01:25.178Z,0.60
2019-05-16T05:04:08.774Z,0.60
2019-05-16T05:06:26.870Z,0.70
2019-05-16T05:08:58.961Z,0.70
2019-05-16T05:11:30.600Z,1.40
2019-05-16T05:14:00.972Z,0.60
2019-05-16T05:16:31.158Z,1.37
2019-05-16T05:19:01.144Z,1.10
2019-05-16T05:21:31.501Z,2.87
2019-05-16T05:24:01.533Z,1.80
2019-05-16T05:26:31.468Z,2.17
2019-05-16T05:29:01.491Z,2.50
2019-05-16T05:31:35.247Z,1.70
2019-05-16T05:34:03.261Z,1.63
2019-05-16T05:36:33.288Z,1.87
2019-05-16T05:39:11.718Z,3.37
2019-05-16T05:41:36.597Z,2.17
2019-05-16T05:44:06.653Z,2.60
2019-05-16T05:46:36.665Z,2.93
2019-05-16T05:49:06.694Z,2.37
2019-05-16T05:51:36.662Z,2.00
2019-05-16T05:54:06.759Z,2.93
2019-05-16T05:56:36.794Z,2.80
2019-05-16T05:59:11.119Z,2.50
2019-05-16T06:01:40.673Z,2.97
2019-05-16T06:04:10.703Z,2.63
2019-05-16T06:06:44.770Z,2.23
2019-05-16T06:09:25.305Z,3.17
2019-05-16T06:11:44.399Z,2.30
2019-05-16T06:14:14.459Z,2.43
2019-05-16T06:16:44.520Z,1.80
2019-05-16T06:19:14.658Z,2.60
2019-05-16T06:21:45.491Z,2.13
2019-05-16T06:24:16.285Z,2.33
2019-05-16T06:26:46.447Z,2.47
2019-05-16T06:29:16.453Z,2.03
2019-05-16T06:31:46.620Z,2.70
2019-05-16T06:34:16.737Z,3.00
2019-05-16T06:36:46.766Z,2.83
2019-05-16T06:39:16.806Z,3.83
2019-05-16T06:41:46.782Z,2.53
2019-05-16T06:44:16.927Z,4.03
2019-05-16T06:46:59.972Z,3.20
2019-05-16T06:49:19.692Z,3.87
2019-05-16T06:51:51.548Z,4.13
2019-05-16T06:54:21.463Z,3.43
2019-05-16T06:56:51.423Z,3.43
2019-05-16T06:59:21.535Z,2.87
2019-05-16T07:01:51.499Z,2.97
2019-05-16T07:04:21.474Z,3.03
2019-05-16T07:06:58.604Z,4.07
2019-05-16T07:09:23.307Z,3.60
2019-05-16T07:11:53.524Z,3.60
2019-05-16T07:14:31.500Z,3.57
2019-05-16T07:17:01.716Z,2.80
2019-05-16T07:19:32.075Z,3.10
2019-05-16T07:22:02.203Z,3.03
2019-05-16T07:24:32.314Z,2.97
2019-05-16T07:27:02.323Z,2.43
2019-05-16T07:29:32.351Z,3.07
2019-05-16T07:32:02.412Z,5.07
2019-05-16T07:34:32.664Z,5.67
2019-05-16T07:37:02.709Z,2.23
2019-05-16T07:39:32.759Z,3.67
2019-05-16T07:42:02.725Z,3.83
2019-05-16T07:44:32.752Z,2.93
2019-05-16T07:47:02.796Z,3.67
2019-05-16T07:49:32.739Z,4.10
2019-05-16T07:52:02.892Z,3.80
2019-05-16T07:54:34.636Z,3.37
2019-05-16T07:57:16.157Z,3.80
2019-05-16T07:59:36.356Z,2.73
2019-05-16T08:02:06.369Z,3.30
2019-05-16T08:04:36.323Z,3.07
2019-05-16T08:07:06.375Z,3.50
2019-05-16T08:09:36.494Z,5.13
2019-05-16T08:12:06.468Z,4.03
2019-05-16T08:14:36.552Z,2.80
2019-05-16T08:17:06.583Z,3.27
2019-05-16T08:19:36.560Z,4.73
2019-05-16T08:22:06.803Z,2.70
2019-05-16T08:24:36.907Z,2.57
2019-05-16T08:27:06.985Z,2.53
2019-05-16T08:29:36.974Z,3.97
2019-05-16T08:32:11.172Z,2.83
2019-05-16T08:34:40.856Z,2.80
2019-05-16T08:37:32.826Z,4.03
2019-05-16T08:39:42.413Z,3.70
2019-05-16T08:42:15.513Z,4.57
2019-05-16T08:44:45.637Z,4.17
2019-05-16T08:47:16.083Z,3.20
2019-05-16T08:49:51.864Z,2.53
2019-05-16T08:52:22.397Z,3.53
2019-05-16T08:54:51.207Z,2.73
2019-05-16T08:57:27.542Z,4.43
2019-05-16T08:59:52.927Z,3.60
2019-05-16T09:02:32.278Z,3.50
2019-05-16T09:04:54.674Z,2.63
2019-05-16T09:07:24.628Z,4.30
2019-05-16T09:09:59.838Z,2.50
2019-05-16T09:12:27.812Z,2.47
2019-05-16T09:14:59.366Z,2.93
2019-05-16T09:17:29.840Z,2.97
2019-05-16T09:19:59.909Z,2.83
2019-05-16T09:22:29.931Z,2.43
2019-05-16T09:24:59.959Z,2.73
2019-05-16T09:27:30.040Z,5.10
2019-05-16T09:30:00.159Z,2.30
2019-05-16T09:32:30.287Z,2.77
2019-05-16T09:35:00.628Z,2.97
2019-05-16T09:37:30.696Z,2.60
2019-05-16T09:40:00.923Z,2.10
2019-05-16T09:42:31.220Z,2.00
2019-05-16T09:45:01.345Z,1.93
2019-05-16T09:47:31.468Z,2.53
2019-05-16T09:50:01.512Z,2.00
2019-05-16T09:52:31.732Z,3.20
2019-05-16T09:55:02.014Z,2.47
2019-05-16T09:57:32.273Z,3.87
2019-05-16T10:00:02.442Z,2.00
2019-05-16T10:02:32.477Z,2.47
2019-05-16T10:05:02.655Z,2.43
2019-05-16T10:07:32.962Z,2.90
2019-05-16T10:10:03.143Z,3.00
2019-05-16T10:12:33.249Z,3.03
2019-05-16T10:15:03.331Z,2.87
2019-05-16T10:17:33.418Z,2.00
2019-05-16T10:20:03.612Z,1.97
2019-05-16T10:22:33.553Z,1.80
2019-05-16T10:25:03.706Z,1.80
2019-05-16T10:27:33.689Z,4.43
2019-05-16T10:30:03.771Z,2.33
2019-05-16T10:32:33.806Z,2.00
2019-05-16T10:35:03.979Z,2.07
2019-05-16T10:37:34.126Z,2.17
2019-05-16T10:40:07.134Z,1.50
2019-05-16T10:42:37.907Z,2.70
2019-05-16T10:45:09.055Z,2.53
2019-05-16T10:47:39.104Z,2.17
2019-05-16T10:50:09.642Z,1.93
2019-05-16T10:52:39.683Z,2.10
2019-05-16T10:55:09.876Z,2.73
2019-05-16T10:57:40.147Z,2.70
2019-05-16T11:00:18.297Z,2.50
2019-05-16T11:02:42.819Z,1.60
2019-05-16T11:05:27.040Z,2.97
2019-05-16T11:07:48.560Z,1.37
2019-05-16T11:10:19.281Z,1.40
2019-05-16T11:12:54.110Z,6.57
2019-05-16T11:15:21.096Z,1.97
2019-05-16T11:17:51.231Z,2.07
2019-05-16T11:20:21.472Z,1.87
2019-05-16T11:22:51.496Z,1.40
2019-05-16T11:25:28.786Z,4.03
2019-05-16T11:27:53.465Z,2.87
2019-05-16T11:30:23.843Z,1.70
2019-05-16T11:32:53.923Z,1.70
2019-05-16T11:35:24.043Z,1.73
2019-05-16T11:37:54.069Z,2.30
2019-05-16T11:40:24.176Z,2.13
2019-05-16T11:43:06.532Z,3.83
2019-05-16T11:45:27.207Z,3.10
2019-05-16T11:47:57.523Z,2.20
2019-05-16T11:50:28.148Z,2.63
2019-05-16T11:52:58.171Z,2.33
2019-05-16T11:55:33.938Z,3.60
2019-05-16T11:57:59.960Z,4.47
2019-05-16T12:00:30.773Z,3.87
2019-05-16T12:03:00.916Z,2.10
2019-05-16T12:05:31.070Z,2.53
2019-05-16T12:08:01.119Z,3.07
2019-05-16T12:10:31.261Z,1.87
2019-05-16T12:13:01.287Z,2.33
2019-05-16T12:15:31.662Z,3.47
2019-05-16T12:18:05.209Z,2.17
2019-05-16T12:20:33.546Z,3.50
2019-05-16T12:23:03.650Z,2.53
2019-05-16T12:25:33.752Z,3.37
2019-05-16T12:28:03.978Z,2.63
2019-05-16T12:30:34.180Z,2.20
2019-05-16T12:33:04.319Z,3.67
2019-05-16T12:35:36.685Z,3.83
2019-05-16T12:38:08.143Z,3.70
2019-05-16T12:40:37.940Z,2.27
2019-05-16T12:43:08.053Z,4.93
2019-05-16T12:45:38.927Z,3.90
2019-05-16T12:48:10.691Z,5.00
2019-05-16T12:50:40.806Z,6.63
2019-05-16T12:53:10.821Z,3.90
2019-05-16T12:55:40.981Z,4.83
2019-05-16T12:58:13.282Z,4.50
2019-05-16T13:00:44.187Z,5.57
2019-05-16T13:03:14.778Z,8.27
2019-05-16T13:05:47.792Z,6.00
2019-05-16T13:08:17.973Z,6.73
2019-05-16T13:10:48.757Z,7.27
2019-05-16T13:13:19.103Z,4.67
2019-05-16T13:15:49.594Z,6.40
2019-05-16T13:18:19.904Z,4.23
2019-05-16T13:20:50.503Z,6.60
2019-05-16T13:23:21.027Z,5.40
2019-05-16T13:25:51.392Z,6.80
2019-05-16T13:28:21.780Z,6.80
2019-05-16T13:30:51.952Z,6.33
2019-05-16T13:33:22.345Z,7.97
2019-05-16T13:35:52.974Z,5.27
2019-05-16T13:38:23.564Z,5.40
2019-05-16T13:40:53.899Z,5.43
2019-05-16T13:43:26.791Z,6.53
2019-05-16T13:45:57.671Z,5.20
2019-05-16T13:48:29.336Z,5.50
2019-05-16T13:51:10.508Z,6.27
2019-05-16T13:53:31.368Z,3.90
2019-05-16T13:56:01.808Z,5.00
2019-05-16T13:58:32.082Z,4.33
2019-05-16T14:01:02.792Z,4.33
2019-05-16T14:03:33.445Z,6.13
2019-05-16T14:06:06.989Z,6.00
2019-05-16T14:08:37.295Z,3.97
2019-05-16T14:11:10.465Z,4.70
2019-05-16T14:13:39.628Z,4.33
2019-05-16T14:16:10.037Z,5.70
2019-05-16T14:18:40.210Z,4.07
2019-05-16T14:21:10.304Z,6.07
2019-05-16T14:23:40.926Z,6.70
2019-05-16T14:26:11.070Z,6.30
2019-05-16T14:28:44.453Z,5.27
2019-05-16T14:31:13.111Z,3.60
2019-05-16T14:33:43.880Z,4.33
2019-05-16T14:36:14.355Z,3.30
2019-05-16T14:38:46.870Z,4.60
2019-05-16T14:41:17.692Z,4.13
2019-05-16T14:43:47.847Z,4.23
2019-05-16T14:46:18.558Z,4.30
2019-05-16T14:48:48.783Z,5.17
2019-05-16T14:51:19.113Z,3.47
2019-05-16T14:53:49.250Z,5.03
2019-05-16T14:56:19.338Z,3.43
2019-05-16T14:58:49.408Z,3.53
2019-05-16T15:01:19.447Z,4.10
2019-05-16T15:03:49.511Z,4.60
2019-05-16T15:06:19.696Z,5.13
2019-05-16T15:08:49.733Z,4.07
2019-05-16T15:11:19.800Z,5.17
2019-05-16T15:13:49.930Z,4.63
2019-05-16T15:16:20.182Z,6.63
2019-05-16T15:18:50.305Z,3.47
2019-05-16T15:21:20.654Z,4.53
2019-05-16T15:23:51.057Z,3.83
2019-05-16T15:26:21.150Z,4.80
2019-05-16T15:28:51.445Z,3.93
2019-05-16T15:31:21.484Z,3.60
2019-05-16T15:33:51.821Z,3.60
2019-05-16T15:36:21.905Z,3.70
2019-05-16T15:38:51.980Z,3.63
2019-05-16T15:41:22.042Z,3.40
2019-05-16T15:43:52.238Z,3.40
2019-05-16T15:46:22.388Z,4.27
2019-05-16T15:48:52.671Z,3.27
2019-05-16T15:51:23.355Z,4.50
2019-05-16T15:53:53.375Z,4.40
2019-05-16T15:56:27.093Z,5.87
2019-05-16T15:58:57.348Z,6.03
2019-05-16T16:01:27.429Z,4.77
2019-05-16T16:03:57.809Z,4.17
2019-05-16T16:06:28.659Z,5.40
2019-05-16T16:08:58.782Z,5.23
2019-05-16T16:11:29.134Z,6.10
2019-05-16T16:13:59.206Z,8.07
2019-05-16T16:16:29.475Z,5.97
2019-05-16T16:18:59.600Z,4.27
2019-05-16T16:21:29.632Z,6.53
2019-05-16T16:23:59.972Z,5.47
2019-05-16T16:26:30.028Z,5.60
2019-05-16T16:29:00.484Z,6.57
2019-05-16T16:31:30.573Z,5.13
2019-05-16T16:34:00.653Z,4.17
2019-05-16T16:36:30.758Z,5.63
2019-05-16T16:39:03.381Z,5.63
2019-05-16T16:41:33.431Z,4.97
2019-05-16T16:44:03.595Z,8.00
2019-05-16T16:46:33.719Z,6.90
2019-05-16T16:49:03.863Z,5.73
2019-05-16T16:51:34.206Z,4.87
2019-05-16T16:54:04.263Z,5.43
2019-05-16T16:56:36.845Z,7.33
2019-05-16T16:59:06.516Z,5.00
2019-05-16T17:01:37.418Z,5.00
2019-05-16T17:04:07.651Z,6.33
2019-05-16T17:06:37.748Z,6.83
2019-05-16T17:09:10.617Z,6.03
2019-05-16T17:11:46.343Z,5.43
2019-05-16T17:14:17.395Z,5.07
2019-05-16T17:16:47.669Z,6.30
2019-05-16T17:19:17.758Z,4.77
2019-05-16T17:22:02.086Z,5.33
2019-05-16T17:24:19.612Z,7.07
2019-05-16T17:26:50.092Z,4.83
2019-05-16T17:29:20.183Z,4.60
2019-05-16T17:31:57.445Z,5.43
2019-05-16T17:34:26.723Z,3.83
2019-05-16T17:36:57.216Z,4.80
2019-05-16T17:39:27.759Z,4.40
2019-05-16T17:41:58.563Z,3.73
2019-05-16T17:44:28.605Z,4.83
2019-05-16T17:46:58.824Z,4.80
2019-05-16T17:49:28.883Z,4.60
2019-05-16T17:51:59.075Z,4.80
2019-05-16T17:54:29.207Z,4.80
2019-05-16T17:56:59.258Z,3.37
2019-05-16T17:59:29.292Z,3.77
2019-05-16T18:01:59.334Z,3.57
2019-05-16T18:04:29.714Z,3.37
2019-05-16T18:06:59.757Z,4.10
2019-05-16T18:09:29.861Z,4.83
2019-05-16T18:11:59.822Z,3.00
2019-05-16T18:14:29.802Z,3.53
2019-05-16T18:17:02.210Z,5.07
2019-05-16T18:19:31.641Z,5.67
2019-05-16T18:22:02.009Z,4.87
2019-05-16T18:24:32.171Z,4.70
2019-05-16T18:27:02.449Z,4.20
2019-05-16T18:29:32.490Z,3.40
2019-05-16T18:32:02.506Z,4.43
2019-05-16T18:34:32.648Z,4.47
2019-05-16T18:37:02.643Z,4.40
2019-05-16T18:39:32.775Z,3.93
2019-05-16T18:42:02.897Z,3.60
2019-05-16T18:44:32.837Z,3.40
2019-05-16T18:47:07.759Z,3.93
2019-05-16T18:49:36.776Z,3.87
2019-05-16T18:52:06.693Z,4.07
2019-05-16T18:54:37.505Z,2.47
2019-05-16T18:57:07.991Z,2.80
2019-05-16T18:59:38.146Z,3.77
2019-05-16T19:02:10.414Z,4.53
2019-05-16T19:04:40.199Z,2.87
2019-05-16T19:07:10.351Z,3.67
2019-05-16T19:09:40.427Z,6.27
2019-05-16T19:12:10.699Z,3.03
2019-05-16T19:14:40.788Z,2.83
2019-05-16T19:17:21.049Z,6.40
2019-05-16T19:19:42.554Z,2.20
2019-05-16T19:22:12.535Z,2.87
2019-05-16T19:24:42.853Z,1.83
2019-05-16T19:27:13.027Z,4.43
2019-05-16T19:29:43.439Z,3.37
2019-05-16T19:32:13.480Z,2.53
2019-05-16T19:34:43.556Z,3.43
2019-05-16T19:37:13.493Z,3.40
2019-05-16T19:39:43.546Z,2.40
2019-05-16T19:42:13.595Z,2.80
2019-05-16T19:44:43.547Z,4.00
2019-05-16T19:47:13.497Z,3.93
2019-05-16T19:49:43.530Z,2.43
2019-05-16T19:52:13.499Z,3.00
2019-05-16T19:54:43.451Z,4.23
2019-05-16T19:57:13.415Z,2.10
2019-05-16T19:59:43.428Z,3.63
2019-05-16T20:02:13.455Z,3.70
2019-05-16T20:04:43.407Z,3.33
2019-05-16T20:07:13.436Z,4.57
2019-05-16T20:09:43.551Z,2.03
2019-05-16T20:12:13.588Z,3.60
2019-05-16T20:14:43.679Z,4.00
2019-05-16T20:17:13.762Z,3.70
2019-05-16T20:19:43.730Z,3.13
2019-05-16T20:22:13.791Z,2.90
2019-05-16T20:24:43.871Z,2.37
2019-05-16T20:27:13.899Z,3.27
2019-05-16T20:29:43.822Z,4.00
2019-05-16T20:32:13.815Z,3.37
2019-05-16T20:34:43.882Z,3.80
2019-05-16T20:37:13.995Z,5.37
2019-05-16T20:39:43.958Z,5.00
2019-05-16T20:42:16.918Z,4.40
2019-05-16T20:44:46.835Z,3.67
2019-05-16T20:47:18.079Z,4.33
2019-05-16T20:49:50.599Z,4.63
2019-05-16T20:52:19.820Z,4.80
2019-05-16T20:54:50.014Z,5.43
2019-05-16T20:57:20.269Z,5.73
2019-05-16T20:59:50.466Z,4.50
2019-05-16T21:02:20.618Z,5.77
2019-05-16T21:04:50.753Z,4.83
2019-05-16T21:07:21.009Z,4.67
2019-05-16T21:09:51.260Z,3.13
2019-05-16T21:12:21.367Z,3.17
2019-05-16T21:14:51.442Z,4.77
2019-05-16T21:17:21.420Z,4.27
2019-05-16T21:19:51.379Z,4.20
2019-05-16T21:22:21.646Z,6.13
2019-05-16T21:24:51.919Z,5.63
2019-05-16T21:27:22.011Z,5.90
2019-05-16T21:29:52.141Z,5.47
2019-05-16T21:32:22.167Z,7.17
2019-05-16T21:34:52.204Z,4.97
2019-05-16T21:37:22.231Z,6.40
2019-05-16T21:39:52.296Z,5.87
2019-05-16T21:42:22.283Z,3.93
2019-05-16T21:44:52.333Z,5.70
2019-05-16T21:47:22.368Z,5.13
2019-05-16T21:49:52.417Z,6.87
2019-05-16T21:52:22.462Z,6.43
2019-05-16T21:54:52.530Z,6.73
2019-05-16T21:57:22.563Z,7.23
2019-05-16T21:59:52.418Z,8.43
2019-05-16T22:02:22.435Z,8.13
2019-05-16T22:04:52.466Z,7.93
2019-05-16T22:07:32.783Z,6.03
2019-05-16T22:09:54.155Z,7.57
2019-05-16T22:12:26.448Z,8.27
2019-05-16T22:14:57.166Z,10.60
2019-05-16T22:17:27.670Z,7.03
2019-05-16T22:19:57.991Z,8.30
2019-05-16T22:22:29.998Z,7.07
2019-05-16T22:24:59.759Z,10.33
2019-05-16T22:27:29.807Z,11.57
2019-05-16T22:29:59.798Z,9.77
2019-05-16T22:32:29.819Z,10.27
2019-05-16T22:35:00.103Z,12.23
2019-05-16T22:37:30.267Z,8.63
2019-05-16T22:40:00.216Z,11.77
2019-05-16T22:42:30.168Z,11.20
2019-05-16T22:45:00.174Z,12.13
2019-05-16T22:47:30.198Z,13.57
2019-05-16T22:50:00.235Z,15.13
2019-05-16T22:52:30.263Z,10.33
2019-05-16T22:55:00.211Z,10.57
2019-05-16T22:57:30.168Z,9.57
2019-05-16T23:00:00.140Z,8.83
2019-05-16T23:02:30.160Z,10.87
2019-05-16T23:05:00.218Z,9.13
2019-05-16T23:07:31.331Z,9.50
2019-05-16T23:10:01.326Z,10.20
2019-05-16T23:12:31.384Z,10.23
2019-05-16T23:15:01.397Z,11.83
2019-05-16T23:17:31.514Z,9.73
2019-05-16T23:20:01.488Z,9.83
2019-05-16T23:22:31.642Z,11.73
2019-05-16T23:25:01.730Z,11.07
2019-05-16T23:27:31.695Z,10.77
2019-05-16T23:30:01.728Z,10.63
2019-05-16T23:32:31.689Z,10.07
2019-05-16T23:35:01.807Z,11.80
2019-05-16T23:37:31.745Z,12.43
2019-05-16T23:40:01.790Z,9.87
2019-05-16T23:42:31.759Z,13.00
2019-05-16T23:45:01.809Z,11.23
2019-05-16T23:47:31.839Z,11.83
2019-05-16T23:50:01.933Z,13.77
2019-05-16T23:52:32.224Z,14.70
2019-05-16T23:55:02.248Z,9.90
2019-05-16T23:57:32.290Z,16.53
